Time;durP1;ratioP1;P1;durP2;ratioP2;P2;SDS_P1;SDS_P2;PMS_P1;PMS_P2;Temp;Humidity;BMP_temperature;BMP_pressure;BME280_temperature;BME280_humidity;BME280_pressure;Samples;Min_cycle;Max_cycle;Signal;HPM_P1;HPM_P2
2022/04/09 00:00:30;;;;;;;;;;;9.00;76.10;;;7.92;72.13;94992.72;4146792;34;19920;-87
2022/04/09 00:03:00;;;;;;;;;;;9.00;77.00;;;7.91;71.64;94981.03;4123865;34;20054;-88
2022/04/09 00:05:28;;;;;;;;;;;9.00;76.00;;;7.90;71.48;94986.75;4123837;34;19904;-88
2022/04/09 00:07:56;;;;;;;;;;;9.00;76.10;;;7.89;72.01;94985.94;4124163;34;20039;-87
2022/04/09 00:10:25;;;;;;;;;;;9.00;76.20;;;7.91;71.42;94991.94;4123983;34;20173;-88
2022/04/09 00:12:54;;;;;;;;;;;9.00;76.20;;;7.92;71.70;94985.38;4125011;34;20386;-87
2022/04/09 00:15:22;;;;;;;;;;;9.00;76.20;;;7.89;71.79;94975.03;4124118;34;20335;-87
2022/04/09 00:17:51;;;;;;;;;;;9.00;76.20;;;7.91;71.66;94966.56;4123949;34;20119;-87
2022/04/09 00:20:21;;;;;;;;;;;9.00;76.20;;;7.91;71.94;94961.13;4123926;34;20018;-88
2022/04/09 00:22:50;;;;;;;;;;;9.00;76.10;;;7.91;71.64;94955.66;4123974;34;19911;-87
2022/04/09 00:25:21;;;;;;;;;;;9.00;76.80;;;7.88;71.71;94945.34;4123566;34;20160;-88
2022/04/09 00:27:50;;;;;;;;;;;9.00;76.00;;;7.89;72.00;94953.25;4123868;34;19904;-87
2022/04/09 00:30:19;;;;;;;;;;;9.00;76.00;;;7.87;71.64;94955.44;4101503;34;20212;-88
2022/04/09 00:32:47;;;;;;;;;;;9.00;76.10;;;7.88;71.57;94951.63;4101511;34;20215;-88
2022/04/09 00:35:16;;;;;;;;;;;9.00;76.10;;;7.90;71.44;94960.31;4123783;34;20176;-87
2022/04/09 00:37:47;;;;;;;;;;;9.00;76.00;;;7.89;71.49;94963.31;4123541;34;19965;-87
2022/04/09 00:40:19;;;;;;;;;;;9.00;76.10;;;7.88;71.78;94957.06;4101631;34;19956;-86
2022/04/09 00:42:47;;;;;;;;;;;9.00;76.00;;;7.88;71.67;94961.69;4101287;34;19903;-87
2022/04/09 00:45:16;;;;;;;;;;;8.90;76.10;;;7.88;71.27;94954.34;4123530;34;19992;-87
2022/04/09 00:47:44;;;;;;;;;;;8.90;75.90;;;7.87;71.42;94954.63;4123692;34;19904;-88
2022/04/09 00:50:14;;;;;;;;;;;9.00;76.00;;;7.89;71.89;94952.41;4134574;34;20059;-86
2022/04/09 00:52:49;;;;;;;;;;;8.90;76.00;;;7.89;71.90;94957.84;4123871;34;19934;-87
2022/04/09 00:56:12;;;;;;;;;;;8.90;76.00;;;7.88;71.12;94950.78;4123570;34;20154;-87
2022/04/09 00:58:14;;;;;;;;;;;9.00;75.80;;;7.87;71.28;94949.97;4101124;34;19904;-87
2022/04/09 01:00:43;;;;;;;;;;;8.90;75.70;;;7.87;70.90;94938.28;4124087;34;19904;-88
2022/04/09 01:03:16;;;;;;;;;;;8.90;75.60;;;7.86;71.03;94939.38;4123389;34;19949;-87
2022/04/09 01:05:45;;;;;;;;;;;8.90;75.60;;;7.87;71.41;94941.81;4123448;34;19924;-87
2022/04/09 01:08:15;;;;;;;;;;;9.00;75.60;;;7.85;71.25;94930.38;4123185;34;19904;-88
2022/04/09 01:10:47;;;;;;;;;;;8.90;75.60;;;7.87;71.40;94939.09;4123379;34;19920;-88
2022/04/09 01:13:16;;;;;;;;;;;8.90;75.60;;;7.86;71.39;94931.22;4123247;34;19911;-85
2022/04/09 01:15:45;;;;;;;;;;;9.00;75.60;;;7.86;70.97;94936.66;4110765;34;19912;-86
2022/04/09 01:18:15;;;;;;;;;;;8.90;75.70;;;7.84;71.31;94931.47;4123131;34;20247;-87
2022/04/09 01:20:45;;;;;;;;;;;8.90;75.70;;;7.86;71.10;94940.19;4101172;34;19963;-86
2022/04/09 01:23:15;;;;;;;;;;;8.90;75.80;;;7.86;71.63;94939.38;4123356;34;20079;-86
2022/04/09 01:25:45;;;;;;;;;;;8.90;75.90;;;7.85;71.30;94924.94;4122915;34;20005;-87
2022/04/09 01:28:15;;;;;;;;;;;8.90;75.90;;;7.86;71.43;94925.75;4123073;34;20039;-87
2022/04/09 01:30:43;;;;;;;;;;;8.90;75.90;;;7.85;71.09;94927.66;4123177;34;20090;-86
2022/04/09 01:33:16;;;;;;;;;;;8.90;75.70;;;7.85;71.11;94918.69;4100973;34;19904;-87
2022/04/09 01:35:45;;;;;;;;;;;8.90;75.70;;;7.86;71.12;94918.38;4122922;34;19904;-86
2022/04/09 01:38:15;;;;;;;;;;;8.90;75.60;;;7.86;71.10;94915.66;4099997;34;19971;-88
2022/04/09 01:40:44;;;;;;;;;;;8.90;75.70;;;7.85;70.85;94913.22;4123068;34;20114;-87
2022/04/09 01:43:13;;;;;;;;;;;8.90;75.60;;;7.84;71.14;94901.50;4100676;34;20167;-87
2022/04/09 01:45:43;;;;;;;;;;;8.90;75.70;;;7.81;71.40;94899.38;4122859;34;19904;-88
2022/04/09 01:48:45;;;;;;;;;;;8.90;75.60;;;7.84;71.03;94901.50;4100834;34;19911;-88
2022/04/09 01:51:13;;;;;;;;;;;8.90;75.60;;;7.82;71.22;94892.78;4122799;34;20082;-87
2022/04/09 01:53:44;;;;;;;;;;;8.90;75.60;;;7.82;71.13;94893.63;4145700;34;20246;-89
2022/04/09 01:56:12;;;;;;;;;;;8.90;75.50;;;7.81;71.29;94874.84;4122513;34;19912;-86
2022/04/09 01:58:44;;;;;;;;;;;8.90;75.50;;;7.82;71.16;94888.19;4100843;34;20038;-86
2022/04/09 02:01:18;;;;;;;;;;;8.90;75.50;;;7.81;71.02;94880.31;4145555;34;20029;-86
2022/04/09 02:03:46;;;;;;;;;;;8.90;75.50;;;7.83;71.15;94883.53;4123685;34;20163;-87
2022/04/09 02:06:15;;;;;;;;;;;8.90;75.60;;;7.81;70.57;94880.31;4122654;34;19966;-86
2022/04/09 02:08:45;;;;;;;;;;;8.90;75.50;;;7.80;70.93;94887.66;4122829;34;20119;-87
2022/04/09 02:11:14;;;;;;;;;;;8.90;75.50;;;7.81;71.03;94880.31;4100547;34;20045;-88
2022/04/09 02:13:43;;;;;;;;;;;8.90;75.50;;;7.80;71.07;94884.13;4145397;34;20049;-87
2022/04/09 02:16:12;;;;;;;;;;;8.90;75.50;;;7.80;71.28;94889.56;4100118;34;19904;-88
2022/04/09 02:18:41;;;;;;;;;;;8.90;75.40;;;7.81;71.06;94896.66;4145262;34;19911;-87
2022/04/09 02:21:10;;;;;;;;;;;8.90;75.60;;;7.80;70.56;94889.56;4144897;34;19904;-87
2022/04/09 02:23:40;;;;;;;;;;;8.90;75.50;;;7.80;70.95;94900.47;4144659;34;19904;-87
2022/04/09 02:26:10;;;;;;;;;;;8.90;75.50;;;7.80;71.21;94893.09;4100131;34;20176;-87
2022/04/09 02:28:38;;;;;;;;;;;8.90;75.50;;;7.81;70.89;94896.66;4100450;34;19904;-87
2022/04/09 02:31:07;;;;;;;;;;;8.90;75.40;;;7.80;70.93;94903.19;4122540;34;20008;-87
2022/04/09 02:33:40;;;;;;;;;;;8.90;75.50;;;7.80;71.45;94905.91;4122598;34;20037;-87
2022/04/09 02:36:12;;;;;;;;;;;8.90;75.40;;;7.80;71.29;94900.47;4100071;34;19927;-88
2022/04/09 02:38:42;;;;;;;;;;;8.90;75.40;;;7.79;70.79;94901.56;4122638;34;20080;-85
2022/04/09 02:41:12;;;;;;;;;;;8.90;75.30;;;7.79;71.15;94896.13;4100312;34;20299;-87
2022/04/09 02:43:41;;;;;;;;;;;8.90;75.40;;;7.79;71.10;94899.63;4122538;34;19911;-87
2022/04/09 02:46:10;;;;;;;;;;;8.90;75.30;;;7.79;71.22;94902.34;4122060;34;19904;-88
2022/04/09 02:48:42;;;;;;;;;;;8.90;75.40;;;7.78;71.27;94889.03;4123233;34;19904;-86
2022/04/09 02:51:12;;;;;;;;;;;8.90;75.40;;;7.79;71.04;94893.38;4102340;34;19904;-87
2022/04/09 02:53:42;;;;;;;;;;;8.90;75.40;;;7.79;71.03;94896.13;4124782;34;20162;-87
2022/04/09 02:56:12;;;;;;;;;;;8.90;75.40;;;7.78;71.09;94889.84;4124479;34;19927;-86
2022/04/09 02:58:42;;;;;;;;;;;8.90;75.40;;;7.79;71.03;94883.28;4124713;34;19961;-86
2022/04/09 03:01:11;;;;;;;;;;;8.90;75.30;;;7.79;70.75;94879.78;4124744;34;20090;-87
2022/04/09 03:03:40;;;;;;;;;;;8.90;75.40;;;7.76;70.72;94888.50;4124853;34;19955;-87
2022/04/09 03:06:09;;;;;;;;;;;8.90;75.50;;;7.77;70.96;94884.69;4101950;34;20116;-87
2022/04/09 03:08:40;;;;;;;;;;;8.80;75.40;;;7.77;70.86;94879.22;4102362;34;19904;-87
2022/04/09 03:11:09;;;;;;;;;;;8.90;75.40;;;7.79;71.06;94882.50;4124365;34;20342;-87
2022/04/09 03:13:39;;;;;;;;;;;8.90;75.40;;;7.79;70.61;94887.94;4097682;34;19927;-87
2022/04/09 03:16:08;;;;;;;;;;;8.90;75.40;;;7.76;71.08;94886.59;4097278;34;20175;-87
2022/04/09 03:18:37;;;;;;;;;;;8.80;75.20;;;7.77;70.40;94885.47;4097581;34;20228;-88
2022/04/09 03:21:06;;;;;;;;;;;8.90;75.40;;;7.78;70.73;94880.88;4097737;34;19912;-86
2022/04/09 03:23:38;;;;;;;;;;;8.90;75.40;;;7.78;71.06;94880.88;4097671;34;20219;-87
2022/04/09 03:26:07;;;;;;;;;;;8.90;75.40;;;7.78;70.91;94878.13;4097256;34;19904;-87
2022/04/09 03:28:43;;;;;;;;;;;8.80;75.30;;;7.76;71.15;94878.41;4119934;34;20127;-88
2022/04/09 03:31:13;;;;;;;;;;;8.80;75.20;;;7.78;70.64;94886.31;4119985;34;19904;-87
2022/04/09 03:33:42;;;;;;;;;;;8.80;75.40;;;7.78;71.30;94883.59;4097297;34;20155;-88
2022/04/09 03:36:15;;;;;;;;;;;8.80;75.50;;;7.76;71.43;94883.06;4114258;34;20020;-86
2022/04/09 03:38:44;;;;;;;;;;;8.90;75.60;;;7.77;71.04;94885.47;4101617;34;20219;-86
2022/04/09 03:41:13;;;;;;;;;;;8.80;75.60;;;7.77;70.98;94882.75;4123929;34;20097;-85
2022/04/09 03:43:56;;;;;;;;;;;8.80;75.60;;;7.77;71.38;94884.69;4122364;34;20249;-88
2022/04/09 03:46:26;;;;;;;;;;;8.90;75.60;;;7.77;70.86;94890.94;4100939;34;20004;-87
2022/04/09 03:48:55;;;;;;;;;;;8.90;75.60;;;7.77;71.05;94884.69;4122954;34;20142;-87
2022/04/09 03:51:24;;;;;;;;;;;8.90;75.60;;;7.77;71.12;94877.31;4123112;34;19904;-86
2022/04/09 03:53:53;;;;;;;;;;;8.90;75.60;;;7.77;71.35;94890.94;4101044;34;19904;-87
2022/04/09 03:56:22;;;;;;;;;;;8.80;75.50;;;7.76;71.02;94883.84;4123122;34;19904;-87
2022/04/09 03:58:51;;;;;;;;;;;8.90;75.60;;;7.77;70.65;94887.41;4101464;34;19927;-87
2022/04/09 04:01:24;;;;;;;;;;;8.90;75.60;;;7.77;70.96;94884.69;4100562;34;19957;-86
2022/04/09 04:03:54;;;;;;;;;;;8.90;75.70;;;7.75;71.26;94881.44;4101204;34;19904;-87
2022/04/09 04:06:24;;;;;;;;;;;8.90;75.60;;;7.78;71.21;94880.88;4100574;34;19904;-87
2022/04/09 04:08:56;;;;;;;;;;;8.80;75.60;;;7.77;70.86;94880.03;4101270;34;19911;-86
2022/04/09 04:11:25;;;;;;;;;;;8.90;75.70;;;7.77;70.92;94874.59;4100985;34;19904;-87
2022/04/09 04:13:55;;;;;;;;;;;8.90;75.70;;;7.75;71.14;94865.88;4123423;34;19904;-87
2022/04/09 04:16:27;;;;;;;;;;;8.80;75.60;;;7.76;71.02;94867.50;4120320;34;19904;-87
2022/04/09 04:18:56;;;;;;;;;;;8.80;75.50;;;7.77;70.93;94862.88;4123167;34;19904;-88
2022/04/09 04:21:25;;;;;;;;;;;8.80;75.40;;;7.77;70.96;94862.88;4101088;34;20187;-86
2022/04/09 04:24:02;;;;;;;;;;;8.80;75.50;;;7.78;70.81;94869.97;4121373;34;19911;-87
2022/04/09 04:26:31;;;;;;;;;;;8.80;75.50;;;7.77;71.42;94858.25;4099616;34;19904;-86
2022/04/09 04:29:04;;;;;;;;;;;8.90;75.70;;;7.77;71.10;94873.78;4122772;34;19911;-87
2022/04/09 04:31:36;;;;;;;;;;;8.90;75.70;;;7.77;71.20;94868.34;4100443;34;19904;-87
2022/04/09 04:34:06;;;;;;;;;;;8.90;75.70;;;7.78;71.60;94867.25;4123092;34;19923;-88
2022/04/09 04:36:40;;;;;;;;;;;8.90;75.80;;;7.78;70.70;94864.53;4145890;34;19937;-86
2022/04/09 04:39:09;;;;;;;;;;;8.80;75.70;;;7.76;71.20;94856.63;4114120;34;20046;-87
2022/04/09 04:41:38;;;;;;;;;;;8.90;75.90;;;7.79;71.14;94866.16;4123679;34;19904;-87
2022/04/09 04:44:10;;;;;;;;;;;8.90;75.90;;;7.78;71.21;94859.88;4123595;34;19904;-86
2022/04/09 04:46:45;;;;;;;;;;;8.90;75.80;;;7.79;71.78;94860.69;4123302;34;20274;-88
2022/04/09 04:49:19;;;;;;;;;;;8.90;76.00;;;7.80;71.50;94854.16;4123431;34;19904;-86
2022/04/09 04:51:51;;;;;;;;;;;8.90;75.90;;;7.81;71.59;94858.50;4101800;34;19911;-88
2022/04/09 04:54:21;;;;;;;;;;;8.90;75.90;;;7.86;71.95;94865.81;4146070;34;20129;-87
2022/04/09 04:56:49;;;;;;;;;;;8.90;76.40;;;7.90;71.98;94873.13;4123105;34;19911;-86
2022/04/09 04:59:18;;;;;;;;;;;9.00;76.50;;;7.99;72.48;94868.69;4100870;34;20146;-86
2022/04/09 05:01:48;;;;;;;;;;;9.10;76.70;;;8.16;72.48;94870.16;4123548;34;20097;-86
2022/04/09 05:04:17;;;;;;;;;;;9.30;76.70;;;8.39;71.28;94871.25;4123448;34;19911;-87
2022/04/09 05:06:57;;;;;;;;;;;9.60;75.80;;;8.68;70.82;94875.06;4123204;34;20242;-87
2022/04/09 05:09:27;;;;;;;;;;;10.00;74.60;;;9.00;69.41;94873.56;4123348;34;19926;-87
2022/04/09 05:11:58;;;;;;;;;;;10.30;73.20;;;9.40;68.31;94885.03;4100806;34;19911;-87
2022/04/09 05:14:36;;;;;;;;;;;10.80;71.60;;;9.78;66.40;94886.94;4100916;34;19911;-86
2022/04/09 05:17:10;;;;;;;;;;;11.20;69.10;;;9.98;66.21;94897.53;4101094;34;19904;-86
2022/04/09 05:19:40;;;;;;;;;;;11.40;68.00;;;10.04;65.08;94898.25;4123219;34;20042;-86
2022/04/09 05:22:14;;;;;;;;;;;11.40;66.90;;;10.01;64.96;94907.03;4101270;34;20103;-87
2022/04/09 05:25:10;;;;;;;;;;;11.40;66.90;;;9.83;65.14;94909.53;4123067;34;20215;-87
2022/04/09 05:27:40;;;;;;;;;;;11.20;67.10;;;9.60;65.98;94904.97;4123025;34;19904;-87
2022/04/09 05:30:15;;;;;;;;;;;11.00;67.90;;;9.35;66.65;94898.78;4100948;34;19911;-89
2022/04/09 05:32:47;;;;;;;;;;;10.70;69.10;;;9.15;67.29;94902.59;4123262;34;20290;-87
2022/04/09 05:35:17;;;;;;;;;;;10.50;70.00;;;9.08;68.27;94911.16;4123006;34;20093;-86
2022/04/09 05:37:51;;;;;;;;;;;10.40;71.20;;;9.05;68.33;94917.19;4122908;34;20090;-88
2022/04/09 05:40:22;;;;;;;;;;;10.30;71.60;;;8.94;68.42;94907.50;4123140;34;20010;-91
2022/04/09 05:42:53;;;;;;;;;;;10.20;71.70;;;8.80;68.80;94901.94;4123141;34;19904;-88
2022/04/09 05:45:22;;;;;;;;;;;10.00;72.00;;;8.69;69.22;94910.25;4123022;34;19953;-88
2022/04/09 05:47:53;;;;;;;;;;;9.90;72.60;;;8.60;69.78;94907.34;4100599;34;20186;-86
2022/04/09 05:50:27;;;;;;;;;;;9.80;73.20;;;8.53;69.82;94890.53;4145843;34;19912;-87
2022/04/09 05:52:55;;;;;;;;;;;9.80;73.80;;;8.52;70.20;94897.06;4145595;34;19904;-87
2022/04/09 05:55:26;;;;;;;;;;;9.70;74.00;;;8.48;70.40;94893.28;4122954;34;19904;-87
2022/04/09 05:57:56;;;;;;;;;;;9.70;74.20;;;8.45;70.48;94893.88;4100531;34;20007;-87
2022/04/09 06:00:27;;;;;;;;;;;9.60;74.40;;;8.43;70.43;94879.69;4100837;34;19904;-86
2022/04/09 06:03:12;;;;;;;;;;;9.60;74.60;;;8.40;70.68;94880.25;4122835;34;19981;-86
2022/04/09 06:05:42;;;;;;;;;;;9.60;74.70;;;8.35;71.04;94867.50;4122793;34;19904;-88
2022/04/09 06:08:19;;;;;;;;;;;9.50;74.90;;;8.41;70.90;94871.78;4100389;34;20165;-87
2022/04/09 06:10:48;;;;;;;;;;;9.50;75.20;;;8.52;70.15;94883.44;4100660;34;20113;-88
2022/04/09 06:13:17;;;;;;;;;;;9.60;75.10;;;8.55;70.58;94882.88;4100415;34;19911;-86
2022/04/09 06:15:46;;;;;;;;;;;9.60;74.80;;;8.53;70.53;94887.78;4122829;34;19988;-88
2022/04/09 06:18:21;;;;;;;;;;;9.70;74.70;;;8.52;70.45;94888.09;4100096;34;19904;-89
2022/04/09 06:20:57;;;;;;;;;;;9.60;74.60;;;8.49;70.57;94884.00;4100514;34;19959;-87
2022/04/09 06:23:26;;;;;;;;;;;9.60;74.70;;;8.47;70.71;94880.72;4100838;34;20299;-87
2022/04/09 06:25:55;;;;;;;;;;;9.60;74.80;;;8.45;70.60;94880.22;4147228;34;20032;-87
2022/04/09 06:28:25;;;;;;;;;;;9.60;74.80;;;8.47;70.77;94888.91;4147399;34;20047;-87
2022/04/09 06:30:54;;;;;;;;;;;9.60;74.90;;;8.47;71.04;94875.25;4102886;34;20250;-87
2022/04/09 06:33:27;;;;;;;;;;;9.60;75.00;;;8.48;70.81;94882.38;4124897;34;19904;-86
2022/04/09 06:36:26;;;;;;;;;;;9.60;74.90;;;8.47;70.83;94880.72;4102489;34;20138;-88
2022/04/09 06:39:04;;;;;;;;;;;9.60;74.80;;;8.44;70.87;94876.66;4147331;34;19904;-87
2022/04/09 06:41:37;;;;;;;;;;;9.60;74.90;;;8.45;70.57;94874.78;4102713;34;19919;-88
2022/04/09 06:44:08;;;;;;;;;;;9.60;75.00;;;8.44;71.21;94876.66;4102327;34;19904;-88
2022/04/09 06:46:46;;;;;;;;;;;9.60;75.10;;;8.45;70.99;94872.03;4101996;34;20022;-87
2022/04/09 06:49:40;;;;;;;;;;;9.60;75.20;;;8.51;70.63;94870.09;4121093;34;19904;-88
2022/04/09 06:52:12;;;;;;;;;;;9.60;75.20;;;8.58;70.75;94865.09;4124798;34;19904;-88
2022/04/09 06:55:16;;;;;;;;;;;9.70;75.30;;;8.69;70.39;94865.78;4126715;34;19904;-88
2022/04/09 06:57:48;;;;;;;;;;;9.70;75.10;;;8.77;70.19;94859.69;4147054;34;19911;-88
2022/04/09 07:00:22;;;;;;;;;;;9.80;74.80;;;8.89;70.29;94870.97;4124857;34;20094;-88
2022/04/09 07:02:51;;;;;;;;;;;9.90;74.60;;;8.98;69.51;94878.50;4124823;34;19998;-88
2022/04/09 07:05:21;;;;;;;;;;;10.00;74.30;;;9.05;69.50;94868.06;4124562;34;20012;-88
2022/04/09 07:07:50;;;;;;;;;;;10.00;74.00;;;9.03;69.43;94871.09;4124584;34;19904;-88
2022/04/09 07:10:37;;;;;;;;;;;10.10;73.80;;;8.98;69.30;94873.06;4124589;34;19904;-88
2022/04/09 07:13:06;;;;;;;;;;;10.10;73.70;;;8.93;69.81;94878.59;4124614;34;20163;-86
2022/04/09 07:15:35;;;;;;;;;;;10.00;73.60;;;8.84;69.96;94873.75;4124547;34;19932;-87
2022/04/09 07:18:13;;;;;;;;;;;10.00;74.70;;;8.82;69.81;94875.16;4101838;34;20038;-87
2022/04/09 07:20:45;;;;;;;;;;;10.00;74.10;;;8.78;69.85;94872.22;4147107;34;19904;-88
2022/04/09 07:23:14;;;;;;;;;;;9.90;74.20;;;8.75;70.28;94883.72;4124677;34;19904;-88
2022/04/09 07:25:42;;;;;;;;;;;9.90;74.40;;;8.72;70.36;94873.38;4147035;34;19908;-88
2022/04/09 07:28:11;;;;;;;;;;;9.80;74.40;;;8.68;70.78;94866.91;4124002;34;20156;-87
2022/04/09 07:30:42;;;;;;;;;;;9.80;74.60;;;8.65;70.82;94868.28;4124577;34;19985;-88
2022/04/09 07:33:10;;;;;;;;;;;9.80;74.80;;;8.62;70.62;94877.06;4147023;34;19991;-87
2022/04/09 07:35:39;;;;;;;;;;;9.70;74.90;;;8.59;70.76;94878.44;4124268;34;19904;-87
2022/04/09 07:38:09;;;;;;;;;;;9.70;75.00;;;8.55;70.95;94871.94;4123951;34;19908;-87
2022/04/09 07:40:38;;;;;;;;;;;9.70;75.10;;;8.55;70.65;94868.41;4124318;34;20131;-87
2022/04/09 07:43:07;;;;;;;;;;;9.70;75.20;;;8.53;70.72;94871.44;4124341;34;19911;-87
2022/04/09 07:45:35;;;;;;;;;;;9.60;75.20;;;8.49;71.38;94867.66;4124033;34;19911;-87
2022/04/09 07:48:05;;;;;;;;;;;9.60;75.30;;;8.50;71.31;94863.81;4123703;34;20245;-87
2022/04/09 07:50:34;;;;;;;;;;;9.60;76.20;;;8.50;70.96;94858.38;4124370;34;19904;-87
2022/04/09 07:53:03;;;;;;;;;;;9.60;75.40;;;8.49;70.88;94867.66;4124231;34;20182;-88
2022/04/09 07:55:33;;;;;;;;;;;9.60;75.40;;;8.51;71.35;94870.91;4146904;34;20232;-87
2022/04/09 07:58:01;;;;;;;;;;;9.60;75.40;;;8.51;70.81;94870.91;4123570;34;19917;-87
2022/04/09 08:00:30;;;;;;;;;;;9.60;75.50;;;8.57;70.86;94864.28;4146967;34;19907;-87
2022/04/09 08:02:59;;;;;;;;;;;9.60;75.60;;;8.60;70.95;94869.16;4146792;34;19911;-88
2022/04/09 08:05:27;;;;;;;;;;;9.70;75.60;;;8.63;70.72;94856.03;4146596;34;20291;-88
2022/04/09 08:07:57;;;;;;;;;;;9.70;75.30;;;8.64;70.99;94860.38;4105314;34;19951;-88
2022/04/09 08:10:25;;;;;;;;;;;9.70;75.20;;;8.63;70.90;94853.31;4118798;34;20121;-88
2022/04/09 08:12:56;;;;;;;;;;;9.70;75.30;;;8.60;70.84;94850.06;4122476;34;19919;-88
2022/04/09 08:15:25;;;;;;;;;;;9.70;75.10;;;8.59;70.71;94861.25;4123526;34;20089;-88
2022/04/09 08:17:56;;;;;;;;;;;9.70;75.20;;;8.55;70.88;94858.31;4099948;34;19976;-87
2022/04/09 08:20:24;;;;;;;;;;;9.70;75.20;;;8.54;71.05;94848.50;4122923;34;19911;-87
2022/04/09 08:22:53;;;;;;;;;;;9.70;75.30;;;8.55;71.03;94860.22;4100610;34;19999;-87
2022/04/09 08:25:22;;;;;;;;;;;9.70;75.40;;;8.54;70.92;94853.97;4100438;34;20001;-87
2022/04/09 08:27:52;;;;;;;;;;;9.60;75.30;;;8.53;71.24;94863.25;4100248;34;19904;-87
2022/04/09 08:30:22;;;;;;;;;;;9.60;75.30;;;8.53;71.38;94860.50;4100617;34;19908;-87
2022/04/09 08:32:52;;;;;;;;;;;9.60;75.30;;;8.52;71.38;94867.06;4115034;34;20028;-87
2022/04/09 08:35:21;;;;;;;;;;;9.60;75.40;;;8.51;71.22;94860.00;4100552;34;19930;-87
2022/04/09 08:37:54;;;;;;;;;;;9.60;75.50;;;8.51;71.22;94865.44;4124409;34;20223;-88
2022/04/09 08:40:23;;;;;;;;;;;9.60;75.50;;;8.48;71.52;94854.31;4101360;34;20180;-88
2022/04/09 08:42:52;;;;;;;;;;;9.60;75.60;;;8.49;71.74;94859.47;4123787;34;19904;-87
2022/04/09 08:45:23;;;;;;;;;;;9.60;75.60;;;8.46;71.21;94851.81;4101257;34;20212;-87
2022/04/09 08:47:51;;;;;;;;;;;9.60;75.60;;;8.48;71.61;94852.38;4122773;34;19912;-87
2022/04/09 08:50:20;;;;;;;;;;;9.60;75.70;;;8.49;70.93;94845.03;4123506;34;19911;-88
2022/04/09 08:52:48;;;;;;;;;;;9.60;75.80;;;8.48;71.23;94844.19;4123592;34;19904;-86
2022/04/09 08:55:17;;;;;;;;;;;9.60;75.80;;;8.48;71.34;94838.75;4101082;34;20263;-88
2022/04/09 08:57:48;;;;;;;;;;;9.60;75.70;;;8.47;71.41;94836.28;4100959;34;20086;-89
2022/04/09 09:00:51;;;;;;;;;;;9.60;75.80;;;8.49;71.33;94839.56;4101284;34;20176;-88
2022/04/09 09:03:20;;;;;;;;;;;9.60;75.70;;;8.49;71.51;94845.03;4101283;34;19911;-88
2022/04/09 09:05:52;;;;;;;;;;;9.60;75.80;;;8.49;71.36;94843.09;4123249;34;20102;-88
2022/04/09 09:08:36;;;;;;;;;;;9.60;75.80;;;8.49;71.70;94845.81;4101034;34;19911;-88
2022/04/09 09:11:05;;;;;;;;;;;9.60;75.90;;;8.51;71.04;94843.63;4123366;34;20051;-88
2022/04/09 09:13:46;;;;;;;;;;;9.60;75.80;;;8.53;71.39;94846.88;4123436;34;19904;-87
2022/04/09 09:16:25;;;;;;;;;;;9.60;75.80;;;8.55;71.34;94849.31;4100474;34;19919;-87
2022/04/09 09:18:54;;;;;;;;;;;9.60;75.70;;;8.55;71.02;94844.69;4101151;34;20131;-87
2022/04/09 09:21:26;;;;;;;;;;;9.60;75.70;;;8.59;71.22;94856.59;4101104;34;19904;-88
2022/04/09 09:24:11;;;;;;;;;;;9.70;75.80;;;8.58;71.43;94841.34;4123220;34;19904;-88
2022/04/09 09:26:41;;;;;;;;;;;9.60;75.60;;;8.59;71.28;94842.97;4100644;34;20075;-88
2022/04/09 09:29:11;;;;;;;;;;;9.70;75.60;;;8.60;71.50;94847.31;4101123;34;19973;-88
2022/04/09 09:31:45;;;;;;;;;;;9.70;75.60;;;8.61;71.54;94845.44;4100939;34;20203;-87
2022/04/09 09:34:14;;;;;;;;;;;9.70;75.60;;;8.62;71.03;94838.03;4123309;34;20059;-88
2022/04/09 09:36:43;;;;;;;;;;;9.70;75.60;;;8.60;71.18;94841.88;4122773;34;19904;-88
2022/04/09 09:39:13;;;;;;;;;;;9.70;75.60;;;8.60;71.18;94836.41;4123342;34;20196;-88
2022/04/09 09:41:48;;;;;;;;;;;9.70;75.60;;;8.61;71.13;94845.44;4123091;34;20126;-88
2022/04/09 09:44:17;;;;;;;;;;;9.70;75.60;;;8.59;71.05;94828.53;4123173;34;19904;-87
2022/04/09 09:46:49;;;;;;;;;;;9.70;75.70;;;8.61;71.16;94818.16;4122591;34;20113;-89
2022/04/09 09:49:17;;;;;;;;;;;9.70;75.60;;;8.62;71.32;94818.94;4100917;34;20023;-88
2022/04/09 09:51:48;;;;;;;;;;;9.70;75.70;;;8.65;71.30;94810.97;4145536;34;19904;-89
2022/04/09 09:54:17;;;;;;;;;;;9.70;75.70;;;8.69;71.12;94805.78;4122830;34;20216;-87
2022/04/09 09:56:45;;;;;;;;;;;9.70;75.70;;;8.72;71.16;94795.06;4123492;34;19904;-87
2022/04/09 09:59:15;;;;;;;;;;;9.80;75.60;;;8.76;70.90;94798.03;4124239;34;20143;-87
2022/04/09 10:01:47;;;;;;;;;;;9.80;75.50;;;8.79;70.68;94782.97;4103085;34;19904;-87
2022/04/09 10:04:17;;;;;;;;;;;9.90;75.40;;;8.79;71.08;94783.81;4103025;34;19992;-87
2022/04/09 10:06:45;;;;;;;;;;;9.90;75.30;;;8.80;70.95;94785.44;4102438;34;19911;-88
2022/04/09 10:09:15;;;;;;;;;;;9.90;75.20;;;8.81;70.71;94787.06;4111673;34;20026;-87
2022/04/09 10:11:49;;;;;;;;;;;9.90;75.00;;;8.82;70.81;94787.84;4125141;34;20127;-87
2022/04/09 10:14:23;;;;;;;;;;;9.90;75.10;;;8.82;70.80;94783.22;4125397;34;19980;-88
2022/04/09 10:16:52;;;;;;;;;;;9.90;75.20;;;8.83;70.75;94773.09;4147628;34;20114;-87
2022/04/09 10:19:25;;;;;;;;;;;9.90;75.20;;;8.84;70.79;94767.34;4125372;34;19904;-87
2022/04/09 10:21:53;;;;;;;;;;;9.90;75.10;;;8.84;70.86;94767.34;4102944;34;19915;-87
2022/04/09 10:24:23;;;;;;;;;;;9.90;75.00;;;8.86;70.69;94759.69;4125206;34;20111;-88
2022/04/09 10:26:54;;;;;;;;;;;9.90;75.10;;;8.85;70.62;94766.22;4124590;34;19904;-88
2022/04/09 10:29:22;;;;;;;;;;;9.90;75.10;;;8.84;70.93;94772.78;4125275;34;20145;-88
2022/04/09 10:31:52;;;;;;;;;;;9.90;75.10;;;8.85;70.95;94777.16;4147672;34;19981;-86
2022/04/09 10:34:21;;;;;;;;;;;9.90;75.10;;;8.84;70.80;94770.06;4098218;34;20255;-88
2022/04/09 10:37:03;;;;;;;;;;;9.90;75.10;;;8.85;70.69;94763.50;4120035;34;20181;-88
2022/04/09 10:39:44;;;;;;;;;;;10.00;75.20;;;8.86;70.84;94762.41;4098203;34;20127;-87
2022/04/09 10:42:47;;;;;;;;;;;10.00;75.30;;;8.88;70.81;94762.91;4098347;34;20025;-87
2022/04/09 10:45:16;;;;;;;;;;;10.00;75.20;;;8.90;70.75;94768.09;4102590;34;19904;-87
2022/04/09 10:48:10;;;;;;;;;;;10.00;75.20;;;8.92;70.75;94771.31;4124443;34;19904;-88
2022/04/09 10:50:58;;;;;;;;;;;10.00;75.10;;;8.94;70.82;94774.56;4107989;34;20413;-88
2022/04/09 10:53:29;;;;;;;;;;;10.00;75.00;;;8.94;70.79;94760.13;4125014;34;19950;-88
2022/04/09 10:56:12;;;;;;;;;;;10.00;75.00;;;8.96;71.00;94766.09;4121323;34;20048;-87
2022/04/09 10:59:00;;;;;;;;;;;10.00;74.90;;;8.96;70.94;94766.91;4125726;34;20044;-88
2022/04/09 11:01:51;;;;;;;;;;;10.10;75.00;;;8.97;70.54;94768.53;4124878;34;19911;-88
2022/04/09 11:04:45;;;;;;;;;;;10.00;74.80;;;8.98;70.68;94752.94;4124740;34;19919;-88
2022/04/09 11:07:16;;;;;;;;;;;10.10;75.00;;;8.99;70.62;94754.56;4124201;34;19911;-88
2022/04/09 11:09:51;;;;;;;;;;;10.10;75.00;;;8.99;70.75;94757.31;4124467;34;19911;-88
2022/04/09 11:12:22;;;;;;;;;;;10.10;75.00;;;8.98;70.69;94758.41;4124592;34;19904;-89
2022/04/09 11:14:52;;;;;;;;;;;10.10;74.90;;;8.98;70.98;94759.25;4124406;34;19911;-88
2022/04/09 11:17:29;;;;;;;;;;;10.10;75.00;;;8.97;70.81;94768.53;4146668;34;20135;-89
2022/04/09 11:20:01;;;;;;;;;;;10.10;75.00;;;8.96;70.53;94761.44;4147232;34;19904;-88
2022/04/09 11:22:36;;;;;;;;;;;10.10;75.10;;;8.97;71.19;94773.19;4124589;34;19967;-87
2022/04/09 11:25:08;;;;;;;;;;;10.00;75.10;;;8.97;70.87;94767.72;4124478;34;20182;-87
2022/04/09 11:27:36;;;;;;;;;;;10.00;75.00;;;8.96;70.76;94771.56;4124042;34;19911;-86
2022/04/09 11:30:07;;;;;;;;;;;10.00;75.10;;;8.95;70.83;94769.94;4124634;34;20379;-89
2022/04/09 11:32:36;;;;;;;;;;;10.00;75.20;;;8.95;71.01;94776.19;4124467;34;20123;-88
2022/04/09 11:35:08;;;;;;;;;;;10.00;75.20;;;8.94;70.92;94765.59;4124267;34;19904;-88
2022/04/09 11:37:40;;;;;;;;;;;10.00;75.20;;;8.93;70.96;94766.69;4123917;34;20391;-87
2022/04/09 11:40:11;;;;;;;;;;;10.00;75.30;;;8.90;71.08;94768.91;4124482;34;19911;-87
2022/04/09 11:42:45;;;;;;;;;;;10.00;75.30;;;8.92;70.82;94773.25;4124361;34;20083;-88
2022/04/09 11:45:19;;;;;;;;;;;10.00;75.40;;;8.90;70.79;94779.81;4147171;34;20128;-88
2022/04/09 11:47:47;;;;;;;;;;;10.00;75.40;;;8.88;71.06;94776.56;4123790;34;20010;-88
2022/04/09 11:50:16;;;;;;;;;;;10.00;75.50;;;8.87;71.39;94780.41;4124492;34;20199;-88
2022/04/09 11:52:45;;;;;;;;;;;10.00;75.50;;;8.88;71.53;94782.03;4124204;34;20223;-88